createdAt,value
2022-08-27T00:00:09.757Z,19.80
2022-08-27T00:03:00.109Z,19.80
2022-08-27T00:05:29.681Z,19.80
2022-08-27T00:08:01.245Z,19.80
2022-08-27T00:10:30.890Z,19.80
2022-08-27T00:13:00.678Z,19.70
2022-08-27T00:15:30.458Z,19.70
2022-08-27T00:17:59.945Z,19.80
2022-08-27T00:20:29.953Z,19.80
2022-08-27T00:23:01.076Z,19.80
2022-08-27T00:25:31.185Z,19.80
2022-08-27T00:28:00.536Z,19.70
2022-08-27T00:30:30.106Z,19.70
2022-08-27T00:33:00.054Z,19.80
2022-08-27T00:35:29.671Z,19.70
2022-08-27T00:38:01.173Z,19.70
2022-08-27T00:40:31.457Z,19.60
2022-08-27T00:43:03.457Z,19.60
2022-08-27T00:45:39.221Z,19.50
2022-08-27T00:48:11.088Z,19.50
2022-08-27T00:50:45.530Z,19.50
2022-08-27T00:53:18.633Z,19.50
2022-08-27T00:55:52.844Z,19.50
2022-08-27T00:58:28.303Z,19.40
2022-08-27T01:00:58.794Z,19.40
2022-08-27T01:03:28.885Z,19.40
2022-08-27T01:06:02.369Z,19.30
2022-08-27T01:08:38.822Z,19.30
2022-08-27T01:11:09.049Z,19.30
2022-08-27T01:13:40.739Z,19.30
2022-08-27T01:16:35.260Z,19.30
2022-08-27T01:19:07.796Z,19.30
2022-08-27T01:21:43.032Z,19.30
2022-08-27T01:24:25.598Z,19.30
2022-08-27T01:26:56.682Z,19.30
2022-08-27T01:29:25.838Z,19.30
2022-08-27T01:31:59.313Z,19.30
2022-08-27T01:34:28.833Z,19.30
2022-08-27T01:36:58.920Z,19.30
2022-08-27T01:39:29.835Z,19.40
2022-08-27T01:42:06.481Z,19.40
2022-08-27T01:44:49.661Z,19.40
2022-08-27T01:47:21.194Z,19.40
2022-08-27T01:49:50.968Z,19.40
2022-08-27T01:52:21.469Z,19.40
2022-08-27T01:54:52.427Z,19.30
2022-08-27T01:57:26.033Z,19.30
2022-08-27T01:59:58.288Z,19.20
2022-08-27T02:02:29.047Z,19.20
2022-08-27T02:04:58.033Z,19.20
2022-08-27T02:07:27.496Z,19.20
2022-08-27T02:09:58.773Z,19.20
2022-08-27T02:12:28.130Z,19.20
2022-08-27T02:14:57.717Z,19.20
2022-08-27T02:17:27.341Z,19.10
2022-08-27T02:19:57.188Z,19.10
2022-08-27T02:22:26.958Z,19.10
2022-08-27T02:24:57.822Z,19.00
2022-08-27T02:27:27.284Z,19.00
2022-08-27T02:29:57.345Z,19.10
2022-08-27T02:32:32.163Z,19.00
2022-08-27T02:35:03.591Z,19.00
2022-08-27T02:37:33.225Z,19.00
2022-08-27T02:40:05.629Z,19.00
2022-08-27T02:42:35.085Z,19.00
2022-08-27T02:45:05.458Z,18.90
2022-08-27T02:47:35.438Z,18.90
2022-08-27T02:50:05.761Z,18.80
2022-08-27T02:52:36.920Z,18.90
2022-08-27T02:55:09.253Z,18.80
2022-08-27T02:57:39.764Z,18.80
2022-08-27T03:00:13.102Z,18.70
2022-08-27T03:02:43.277Z,18.70
2022-08-27T03:05:14.766Z,18.60
2022-08-27T03:07:45.177Z,18.60
2022-08-27T03:10:19.551Z,18.50
2022-08-27T03:12:49.574Z,18.50
2022-08-27T03:15:21.188Z,18.50
2022-08-27T03:18:08.074Z,18.40
2022-08-27T03:20:41.117Z,18.40
2022-08-27T03:23:11.958Z,18.40
2022-08-27T03:25:46.239Z,18.40
2022-08-27T03:28:23.230Z,18.40
2022-08-27T03:30:54.517Z,18.40
2022-08-27T03:33:24.230Z,18.40
2022-08-27T03:35:53.897Z,18.30
2022-08-27T03:38:23.497Z,18.20
2022-08-27T03:40:55.273Z,18.20
2022-08-27T03:43:25.542Z,18.10
2022-08-27T03:46:05.591Z,18.00
2022-08-27T03:48:35.636Z,18.00
2022-08-27T03:51:08.230Z,17.90
2022-08-27T03:53:38.301Z,17.80
2022-08-27T03:56:10.381Z,17.80
2022-08-27T03:58:40.469Z,17.70
2022-08-27T04:01:11.011Z,17.90
2022-08-27T04:03:40.423Z,17.90
2022-08-27T04:06:10.020Z,17.90
2022-08-27T04:08:39.978Z,17.90
2022-08-27T04:11:11.141Z,17.90
2022-08-27T04:13:41.606Z,18.00
2022-08-27T04:16:11.032Z,18.00
2022-08-27T04:18:40.690Z,18.00
2022-08-27T04:21:13.168Z,18.00
2022-08-27T04:23:44.466Z,18.10
2022-08-27T04:26:17.043Z,18.10
2022-08-27T04:28:48.842Z,18.20
2022-08-27T04:31:21.419Z,18.30
2022-08-27T04:33:51.497Z,18.30
2022-08-27T04:36:22.550Z,18.40
2022-08-27T04:38:52.014Z,18.50
2022-08-27T04:41:25.381Z,18.50
2022-08-27T04:43:57.320Z,18.60
2022-08-27T04:46:29.652Z,18.60
2022-08-27T04:49:00.488Z,18.60
2022-08-27T04:51:31.677Z,18.70
2022-08-27T04:54:01.193Z,18.80
2022-08-27T04:56:32.835Z,18.90
2022-08-27T04:59:04.387Z,19.10
2022-08-27T05:01:34.161Z,19.20
2022-08-27T05:04:03.654Z,19.20
2022-08-27T05:06:33.481Z,19.30
2022-08-27T05:09:03.083Z,19.30
2022-08-27T05:11:34.995Z,19.40
2022-08-27T05:14:05.947Z,19.50
2022-08-27T05:16:36.640Z,19.60
2022-08-27T05:19:09.333Z,19.70
2022-08-27T05:21:41.410Z,19.80
2022-08-27T05:24:11.365Z,19.90
2022-08-27T05:26:42.328Z,20.00
2022-08-27T05:29:12.235Z,20.00
2022-08-27T05:31:42.284Z,20.20
2022-08-27T05:34:18.685Z,20.30
2022-08-27T05:36:52.076Z,20.40
2022-08-27T05:39:21.568Z,20.50
2022-08-27T05:41:53.928Z,20.60
2022-08-27T05:44:40.515Z,20.60
2022-08-27T05:47:10.589Z,20.70
2022-08-27T05:49:40.701Z,20.80
2022-08-27T05:52:11.718Z,20.80
2022-08-27T05:54:42.105Z,20.90
2022-08-27T05:57:13.135Z,20.90
2022-08-27T05:59:56.461Z,21.00
2022-08-27T06:02:26.448Z,21.00
2022-08-27T06:04:56.704Z,21.20
2022-08-27T06:07:26.053Z,21.40
2022-08-27T06:09:55.379Z,21.40
2022-08-27T06:12:27.145Z,21.50
2022-08-27T06:14:57.969Z,21.50
2022-08-27T06:17:28.065Z,21.60
2022-08-27T06:19:58.015Z,21.70
2022-08-27T06:22:27.419Z,21.70
2022-08-27T06:24:57.473Z,21.90
2022-08-27T06:27:28.264Z,21.90
2022-08-27T06:29:57.851Z,22.00
2022-08-27T06:32:27.457Z,22.00
2022-08-27T06:34:56.885Z,22.10
2022-08-27T06:37:27.546Z,22.20
2022-08-27T06:39:56.925Z,22.20
2022-08-27T06:42:27.805Z,22.40
2022-08-27T06:44:57.449Z,22.50
2022-08-27T06:47:26.885Z,22.50
2022-08-27T06:49:56.494Z,22.60
2022-08-27T06:52:26.366Z,22.70
2022-08-27T06:54:55.868Z,22.80
2022-08-27T06:57:25.248Z,22.90
2022-08-27T06:59:56.441Z,23.00
2022-08-27T07:02:25.844Z,23.00
2022-08-27T07:04:56.475Z,23.10
2022-08-27T07:07:28.007Z,23.20
2022-08-27T07:10:06.087Z,23.30
2022-08-27T07:12:35.477Z,23.40
2022-08-27T07:15:07.289Z,23.50
2022-08-27T07:17:36.982Z,23.50
2022-08-27T07:20:08.288Z,23.70
2022-08-27T07:22:38.030Z,23.80
2022-08-27T07:25:08.324Z,23.90
2022-08-27T07:27:37.496Z,24.00
2022-08-27T07:30:13.362Z,24.00
2022-08-27T07:32:43.041Z,24.00
2022-08-27T07:35:13.206Z,24.00
2022-08-27T07:37:43.420Z,24.10
2022-08-27T07:40:14.005Z,24.30
2022-08-27T07:43:01.574Z,24.40
2022-08-27T07:45:32.597Z,24.50
2022-08-27T07:48:02.701Z,24.60
2022-08-27T07:50:32.177Z,24.70
2022-08-27T07:53:01.761Z,24.80
2022-08-27T07:55:31.348Z,24.80
2022-08-27T07:58:01.354Z,24.80
2022-08-27T08:00:32.257Z,24.80
2022-08-27T08:03:02.868Z,24.90
2022-08-27T08:05:32.271Z,24.90
2022-08-27T08:08:01.715Z,25.00
2022-08-27T08:10:35.338Z,25.10
2022-08-27T08:13:05.679Z,25.20
2022-08-27T08:15:38.092Z,25.30
2022-08-27T08:18:07.541Z,25.40
2022-08-27T08:20:57.072Z,25.50
2022-08-27T08:23:26.678Z,25.50
2022-08-27T08:25:58.045Z,25.70
2022-08-27T08:28:27.993Z,25.70
2022-08-27T08:31:01.753Z,25.80
2022-08-27T08:33:32.183Z,25.90
2022-08-27T08:36:06.634Z,25.90
2022-08-27T08:38:36.364Z,25.90
2022-08-27T08:41:08.549Z,25.90
2022-08-27T08:43:42.390Z,26.10
2022-08-27T08:46:23.772Z,26.10
2022-08-27T08:48:58.720Z,26.20
2022-08-27T08:51:34.542Z,26.30
2022-08-27T08:54:06.456Z,26.50
2022-08-27T08:56:45.341Z,26.60
2022-08-27T08:59:21.110Z,26.60
2022-08-27T09:01:53.311Z,26.70
2022-08-27T09:04:25.160Z,26.80
2022-08-27T09:06:59.869Z,26.90
2022-08-27T09:09:36.423Z,27.00
2022-08-27T09:12:15.644Z,27.10
2022-08-27T09:14:51.260Z,27.10
2022-08-27T09:17:22.691Z,27.10
2022-08-27T09:19:52.601Z,27.20
2022-08-27T09:22:28.733Z,27.10
2022-08-27T09:25:08.249Z,27.10
2022-08-27T09:27:41.888Z,27.20
2022-08-27T09:30:14.898Z,27.20
2022-08-27T09:32:46.441Z,27.30
2022-08-27T09:35:17.317Z,27.40
2022-08-27T09:37:49.546Z,27.40
2022-08-27T09:40:24.857Z,27.30
2022-08-27T09:42:57.740Z,27.40
2022-08-27T09:45:30.122Z,27.50
2022-08-27T09:48:09.651Z,27.70
2022-08-27T09:50:44.017Z,27.70
2022-08-27T09:53:22.146Z,27.90
2022-08-27T09:55:56.577Z,28.00
2022-08-27T09:58:30.122Z,28.00
2022-08-27T10:01:05.696Z,28.10
2022-08-27T10:03:37.056Z,28.10
2022-08-27T10:06:06.843Z,28.00
2022-08-27T10:08:42.692Z,28.10
2022-08-27T10:11:16.859Z,28.10
2022-08-27T10:13:53.760Z,28.10
2022-08-27T10:16:49.032Z,28.20
2022-08-27T10:19:30.923Z,28.30
2022-08-27T10:22:11.665Z,28.40
2022-08-27T10:24:56.037Z,28.40
2022-08-27T10:27:32.943Z,28.60
2022-08-27T10:30:09.761Z,28.70
2022-08-27T10:32:55.459Z,28.70
2022-08-27T10:35:30.333Z,28.90
2022-08-27T10:38:10.943Z,29.10
2022-08-27T10:40:49.742Z,29.40
2022-08-27T10:43:38.224Z,29.40
2022-08-27T10:46:26.945Z,29.30
2022-08-27T10:49:04.901Z,29.40
2022-08-27T10:51:44.107Z,29.80
2022-08-27T10:54:23.921Z,30.10
2022-08-27T10:57:26.245Z,30.40
2022-08-27T11:00:01.916Z,31.10
2022-08-27T11:02:37.747Z,32.70
2022-08-27T11:05:17.330Z,33.90
2022-08-27T11:07:52.843Z,35.00
2022-08-27T11:10:26.108Z,34.60
2022-08-27T11:12:58.385Z,35.60
2022-08-27T11:15:32.153Z,35.90
2022-08-27T11:18:06.328Z,36.10
2022-08-27T11:20:42.394Z,36.50
2022-08-27T11:23:19.093Z,37.00
2022-08-27T11:25:53.258Z,35.60
2022-08-27T11:28:30.008Z,35.80
2022-08-27T11:31:09.355Z,35.40
2022-08-27T11:33:46.036Z,35.90
2022-08-27T11:36:34.388Z,36.30
2022-08-27T11:39:13.290Z,36.00
2022-08-27T11:41:59.892Z,36.30
2022-08-27T11:44:30.813Z,36.30
2022-08-27T11:47:11.948Z,36.50
2022-08-27T11:49:47.739Z,36.60
2022-08-27T11:52:29.325Z,36.90
2022-08-27T11:55:13.349Z,36.90
2022-08-27T11:57:43.490Z,36.80
2022-08-27T12:00:19.201Z,36.50
2022-08-27T12:02:59.935Z,36.60
2022-08-27T12:05:37.931Z,36.40
2022-08-27T12:08:21.254Z,37.00
2022-08-27T12:11:05.245Z,37.40
2022-08-27T12:13:40.851Z,37.60
2022-08-27T12:16:23.835Z,37.90
2022-08-27T12:19:08.958Z,37.60
2022-08-27T12:21:50.199Z,37.40
2022-08-27T12:24:55.793Z,37.40
2022-08-27T12:27:36.257Z,36.90
2022-08-27T12:30:21.385Z,37.00
2022-08-27T12:32:53.480Z,36.80
2022-08-27T12:35:25.053Z,36.80
2022-08-27T12:37:58.416Z,37.10
2022-08-27T12:40:31.895Z,37.20
2022-08-27T12:43:14.068Z,37.40
2022-08-27T12:45:47.504Z,37.30
2022-08-27T12:48:20.677Z,37.10
2022-08-27T12:50:54.935Z,37.40
2022-08-27T12:53:45.969Z,37.40
2022-08-27T12:56:29.638Z,37.00
2022-08-27T12:59:10.958Z,37.10
2022-08-27T13:01:58.009Z,37.00
2022-08-27T13:04:29.917Z,36.80
2022-08-27T13:06:59.755Z,37.30
2022-08-27T13:09:33.096Z,37.20
2022-08-27T13:12:03.936Z,37.40
2022-08-27T13:14:40.418Z,37.10
2022-08-27T13:17:12.720Z,36.90
2022-08-27T13:19:51.337Z,37.10
2022-08-27T13:22:26.213Z,36.70
2022-08-27T13:24:59.905Z,36.50
2022-08-27T13:27:31.081Z,36.00
2022-08-27T13:30:06.577Z,36.00
2022-08-27T13:32:36.288Z,36.20
2022-08-27T13:35:07.896Z,36.20
2022-08-27T13:37:43.089Z,35.90
2022-08-27T13:40:25.522Z,36.00
2022-08-27T13:42:55.421Z,36.00
2022-08-27T13:45:28.378Z,35.90
2022-08-27T13:47:57.893Z,35.80
2022-08-27T13:50:30.346Z,35.70
2022-08-27T13:53:24.524Z,36.00
2022-08-27T13:55:56.432Z,35.80
2022-08-27T13:58:28.561Z,35.50
2022-08-27T14:01:10.742Z,35.20
2022-08-27T14:03:50.274Z,35.00
2022-08-27T14:06:35.425Z,34.80
2022-08-27T14:09:19.929Z,35.00
2022-08-27T14:11:50.774Z,35.00
2022-08-27T14:14:20.670Z,35.20
2022-08-27T14:16:59.745Z,35.10
2022-08-27T14:19:33.374Z,34.80
2022-08-27T14:22:06.946Z,34.90
2022-08-27T14:24:36.414Z,34.90
2022-08-27T14:27:07.105Z,34.90
2022-08-27T14:29:36.730Z,34.70
2022-08-27T14:32:08.730Z,34.80
2022-08-27T14:34:39.052Z,34.80
2022-08-27T14:37:08.632Z,34.90
2022-08-27T14:39:38.042Z,34.80
2022-08-27T14:42:12.043Z,34.70
2022-08-27T14:44:41.573Z,34.70
2022-08-27T14:47:13.064Z,34.40
2022-08-27T14:49:46.280Z,34.70
2022-08-27T14:52:17.376Z,34.60
2022-08-27T14:54:47.707Z,34.70
2022-08-27T14:57:17.086Z,34.90
2022-08-27T14:59:47.270Z,35.00
2022-08-27T15:02:19.384Z,35.00
2022-08-27T15:04:49.090Z,34.90
2022-08-27T15:07:20.043Z,34.90
2022-08-27T15:09:52.397Z,34.90
2022-08-27T15:12:25.624Z,34.80
2022-08-27T15:14:56.609Z,34.50
2022-08-27T15:17:34.393Z,34.40
2022-08-27T15:20:07.078Z,34.60
2022-08-27T15:22:37.998Z,34.60
2022-08-27T15:25:11.301Z,34.60
2022-08-27T15:27:40.860Z,34.60
2022-08-27T15:30:13.989Z,34.40
2022-08-27T15:32:47.199Z,34.40
2022-08-27T15:35:19.202Z,34.40
2022-08-27T15:37:49.014Z,34.10
2022-08-27T15:40:20.468Z,34.10
2022-08-27T15:43:02.492Z,34.20
2022-08-27T15:45:33.498Z,34.40
2022-08-27T15:48:04.944Z,34.40
2022-08-27T15:50:35.867Z,34.60
2022-08-27T15:53:07.524Z,34.40
2022-08-27T15:55:42.852Z,34.40
2022-08-27T15:58:13.495Z,34.30
2022-08-27T16:00:46.718Z,34.10
2022-08-27T16:03:18.488Z,34.20
2022-08-27T16:05:48.822Z,34.20
2022-08-27T16:08:18.673Z,34.00
2022-08-27T16:10:48.013Z,33.80
2022-08-27T16:13:18.537Z,33.70
2022-08-27T16:15:47.925Z,33.60
2022-08-27T16:18:20.210Z,33.60
2022-08-27T16:20:51.557Z,33.60
2022-08-27T16:23:21.552Z,33.60
2022-08-27T16:25:51.064Z,33.30
2022-08-27T16:28:20.972Z,33.20
2022-08-27T16:30:50.508Z,33.00
2022-08-27T16:33:22.558Z,33.20
2022-08-27T16:35:52.836Z,32.80
2022-08-27T16:38:22.365Z,32.40
2022-08-27T16:40:52.489Z,31.80
2022-08-27T16:43:25.311Z,31.20
2022-08-27T16:45:57.019Z,30.70
2022-08-27T16:48:45.881Z,30.30
2022-08-27T16:51:18.208Z,30.10
2022-08-27T16:53:49.796Z,29.60
2022-08-27T16:56:20.708Z,29.40
2022-08-27T16:58:56.437Z,29.20
2022-08-27T17:01:26.524Z,28.90
2022-08-27T17:04:23.905Z,28.60
2022-08-27T17:06:51.807Z,28.40
2022-08-27T17:09:21.664Z,28.20
2022-08-27T17:11:57.229Z,28.10
2022-08-27T17:14:26.782Z,28.00
2022-08-27T17:16:57.196Z,27.80
2022-08-27T17:19:28.437Z,27.60
2022-08-27T17:21:58.444Z,27.50
2022-08-27T17:24:27.829Z,27.30
2022-08-27T17:26:57.784Z,27.10
2022-08-27T17:29:27.721Z,27.00
2022-08-27T17:31:57.213Z,26.90
2022-08-27T17:34:29.009Z,26.80
2022-08-27T17:36:58.800Z,26.70
2022-08-27T17:39:28.784Z,26.40
2022-08-27T17:41:58.668Z,26.40
2022-08-27T17:44:32.346Z,26.30
2022-08-27T17:47:03.644Z,26.20
2022-08-27T17:49:36.139Z,26.10
2022-08-27T17:52:09.976Z,26.00
2022-08-27T17:54:42.762Z,25.90
2022-08-27T17:57:16.805Z,25.80
2022-08-27T17:59:47.000Z,25.70
2022-08-27T18:02:21.560Z,25.70
2022-08-27T18:04:53.179Z,25.50
2022-08-27T18:07:23.046Z,25.40
2022-08-27T18:09:53.305Z,25.30
2022-08-27T18:12:25.337Z,25.10
2022-08-27T18:15:04.679Z,25.00
2022-08-27T18:17:34.113Z,24.90
2022-08-27T18:20:09.713Z,24.90
2022-08-27T18:22:40.883Z,24.90
2022-08-27T18:25:13.463Z,24.90
2022-08-27T18:27:45.644Z,24.80
2022-08-27T18:30:15.445Z,24.70
2022-08-27T18:32:44.937Z,24.60
2022-08-27T18:35:20.024Z,24.60
2022-08-27T18:37:50.262Z,24.50
2022-08-27T18:40:22.161Z,24.50
2022-08-27T18:42:52.714Z,24.40
2022-08-27T18:45:28.520Z,24.40
2022-08-27T18:48:00.942Z,24.30
2022-08-27T18:50:31.817Z,24.30
2022-08-27T18:53:02.165Z,24.30
2022-08-27T18:55:31.639Z,24.20
2022-08-27T18:58:01.203Z,24.20
2022-08-27T19:00:31.187Z,24.10
2022-08-27T19:03:02.009Z,24.10
2022-08-27T19:05:33.714Z,24.10
2022-08-27T19:08:06.096Z,24.00
2022-08-27T19:10:36.189Z,24.10
2022-08-27T19:13:05.639Z,24.10
2022-08-27T19:15:35.054Z,24.10
2022-08-27T19:18:04.994Z,24.10
2022-08-27T19:20:36.169Z,24.00
2022-08-27T19:23:05.927Z,23.90
2022-08-27T19:25:35.813Z,24.00
2022-08-27T19:28:05.780Z,24.00
2022-08-27T19:30:35.493Z,24.00
2022-08-27T19:33:05.126Z,23.90
2022-08-27T19:35:37.415Z,24.00
2022-08-27T19:38:08.752Z,23.80
2022-08-27T19:40:39.017Z,23.70
2022-08-27T19:43:09.459Z,23.70
2022-08-27T19:45:40.254Z,23.70
2022-08-27T19:48:12.667Z,23.50
2022-08-27T19:50:45.028Z,23.50
2022-08-27T19:53:15.263Z,23.40
2022-08-27T19:55:46.286Z,23.40
2022-08-27T19:58:19.760Z,23.50
2022-08-27T20:00:49.622Z,23.40
2022-08-27T20:03:20.042Z,23.40
2022-08-27T20:05:53.118Z,23.40
2022-08-27T20:08:23.374Z,23.20
2022-08-27T20:10:52.778Z,23.20
2022-08-27T20:13:22.668Z,23.10
2022-08-27T20:15:52.429Z,23.00
2022-08-27T20:18:23.354Z,22.90
2022-08-27T20:20:54.111Z,22.80
2022-08-27T20:23:23.425Z,22.60
2022-08-27T20:26:00.471Z,22.50
2022-08-27T20:28:46.052Z,22.50
2022-08-27T20:31:16.071Z,22.40
2022-08-27T20:33:45.806Z,22.40
2022-08-27T20:36:16.694Z,22.30
2022-08-27T20:38:46.762Z,22.20
2022-08-27T20:41:16.286Z,22.10
2022-08-27T20:43:45.604Z,22.00
2022-08-27T20:46:16.660Z,21.90
2022-08-27T20:48:45.739Z,21.80
2022-08-27T20:51:16.934Z,21.70
2022-08-27T20:53:46.544Z,21.70
2022-08-27T20:56:16.021Z,21.60
2022-08-27T20:59:02.845Z,21.60
2022-08-27T21:01:32.806Z,21.50
2022-08-27T21:04:02.354Z,21.40
2022-08-27T21:06:33.647Z,21.40
2022-08-27T21:09:03.934Z,21.40
2022-08-27T21:11:33.602Z,21.30
2022-08-27T21:14:03.132Z,21.30
2022-08-27T21:16:33.154Z,21.20
2022-08-27T21:19:02.653Z,21.20
2022-08-27T21:21:33.568Z,21.10
2022-08-27T21:24:03.462Z,21.00
2022-08-27T21:26:32.913Z,21.00
2022-08-27T21:29:02.425Z,20.90
2022-08-27T21:31:32.708Z,20.90
2022-08-27T21:34:02.119Z,20.90
2022-08-27T21:36:33.314Z,20.90
2022-08-27T21:39:03.078Z,20.90
2022-08-27T21:41:37.174Z,20.80
2022-08-27T21:44:07.394Z,20.70
2022-08-27T21:46:37.314Z,20.70
2022-08-27T21:49:07.015Z,20.60
2022-08-27T21:51:38.448Z,20.50
2022-08-27T21:54:07.816Z,20.50
2022-08-27T21:56:38.631Z,20.50
2022-08-27T21:59:08.957Z,20.50
2022-08-27T22:01:39.565Z,20.40
2022-08-27T22:04:09.214Z,20.40
2022-08-27T22:06:40.037Z,20.40
2022-08-27T22:09:09.642Z,20.40
2022-08-27T22:11:39.029Z,20.30
2022-08-27T22:14:08.460Z,20.40
2022-08-27T22:16:41.748Z,20.40
2022-08-27T22:19:11.348Z,20.30
2022-08-27T22:21:42.302Z,20.20
2022-08-27T22:24:12.976Z,20.20
2022-08-27T22:26:42.476Z,20.10
2022-08-27T22:29:11.820Z,20.10
2022-08-27T22:31:41.991Z,20.10
2022-08-27T22:34:13.361Z,20.10
2022-08-27T22:36:47.996Z,20.00
2022-08-27T22:39:17.534Z,20.00
2022-08-27T22:41:49.413Z,20.00
2022-08-27T22:44:19.060Z,20.00
2022-08-27T22:46:49.124Z,19.90
2022-08-27T22:49:18.703Z,19.90
2022-08-27T22:51:50.565Z,19.90
2022-08-27T22:54:20.948Z,19.90
2022-08-27T22:56:50.260Z,19.90
2022-08-27T22:59:19.881Z,19.80
2022-08-27T23:01:49.657Z,19.80
2022-08-27T23:04:19.840Z,19.70
2022-08-27T23:06:51.353Z,19.60
2022-08-27T23:09:21.091Z,19.60
2022-08-27T23:11:50.930Z,19.60
2022-08-27T23:14:20.461Z,19.50
2022-08-27T23:16:50.144Z,19.50
2022-08-27T23:19:20.000Z,19.50
2022-08-27T23:21:51.134Z,19.50
2022-08-27T23:24:21.500Z,19.50
2022-08-27T23:27:08.037Z,19.40
2022-08-27T23:29:38.297Z,19.40
2022-08-27T23:32:08.007Z,19.40
2022-08-27T23:34:37.340Z,19.40
2022-08-27T23:37:09.035Z,19.40
2022-08-27T23:39:38.370Z,19.30
2022-08-27T23:42:08.785Z,19.20
2022-08-27T23:44:38.474Z,19.20
2022-08-27T23:47:07.957Z,19.20
2022-08-27T23:49:39.210Z,19.10
2022-08-27T23:52:09.964Z,19.10
2022-08-27T23:54:40.549Z,19.10
2022-08-27T23:57:10.084Z,18.90
2022-08-27T23:59:39.834Z,18.90
